Wetterdaten: Woche 12.08.13 - 18.08.13 (KW33)
Datum Zeit Temp. Aussen +5cm Feuchte Auss Luftdruck Regen Sonnenschein Regendauer UV Solar Windben
12.08.2013 00:00 16,1 C 15,5 C 94 % 1016,7 hPa 0,0 l/m 0,00 h 0,00 h 0,0 UV-I 0 W/m 0,1 km/h (0 Bft)
12.08.2013 01:00 15,2 C 14,2 C 94 % 1016,6 hPa 0,0 l/m 0,00 h 0,00 h 0,0 UV-I 0 W/m 0,0 km/h (0 Bft)
12.08.2013 02:00 14,6 C 14,2 C 94 % 1016,4 hPa 0,0 l/m 0,00 h 0,07 h 0,0 UV-I 0 W/m 0,0 km/h (0 Bft)
12.08.2013 03:00 14,3 C 13,9 C 95 % 1016,2 hPa 0,0 l/m 0,00 h 0,00 h 0,0 UV-I 0 W/m 0,0 km/h (0 Bft)
12.08.2013 04:00 13,8 C 13,3 C 94 % 1016,0 hPa 0,0 l/m 0,00 h 0,00 h 0,0 UV-I 0 W/m 0,0 km/h (0 Bft)
12.08.2013 05:00 13,4 C 12,8 C 94 % 1015,5 hPa 0,0 l/m 0,00 h 0,00 h 0,0 UV-I 0 W/m 0,0 km/h (0 Bft)
12.08.2013 06:00 13,3 C 12,9 C 94 % 1015,5 hPa 0,0 l/m 0,00 h 0,00 h 0,0 UV-I 14 W/m 0,0 km/h (0 Bft)
12.08.2013 07:00 14,2 C 13,8 C 94 % 1015,6 hPa 0,0 l/m 0,00 h 0,00 h 0,0 UV-I 53 W/m 0,4 km/h (0 Bft)
12.08.2013 08:00 15,7 C 15,2 C 91 % 1015,5 hPa 0,0 l/m 0,33 h 0,00 h 0,0 UV-I 173 W/m 1,1 km/h (0 Bft)
12.08.2013 09:00 16,9 C 16,9 C 89 % 1015,7 hPa 0,0 l/m 0,37 h 0,00 h 0,8 UV-I 288 W/m 5,6 km/h (1 Bft)
12.08.2013 10:00 18,5 C 19,5 C 84 % 1015,6 hPa 0,0 l/m 0,73 h 0,00 h 1,5 UV-I 401 W/m 7,1 km/h (2 Bft)
12.08.2013 11:00 19,8 C 20,7 C 77 % 1015,4 hPa 0,0 l/m 0,40 h 0,00 h 2,2 UV-I 436 W/m 4,4 km/h (1 Bft)
12.08.2013 12:00 20,4 C 21,2 C 70 % 1015,2 hPa 0,0 l/m 0,30 h 0,00 h 2,2 UV-I 392 W/m 4,4 km/h (1 Bft)
12.08.2013 13:00 21,0 C 22,0 C 66 % 1015,0 hPa 0,0 l/m 0,10 h 0,00 h 1,9 UV-I 340 W/m 7,7 km/h (2 Bft)
12.08.2013 14:00 20,9 C 21,0 C 64 % 1014,8 hPa 0,0 l/m 0,07 h 0,00 h 1,2 UV-I 245 W/m 8,9 km/h (2 Bft)
12.08.2013 15:00 20,3 C 20,0 C 67 % 1014,4 hPa 0,0 l/m 0,00 h 0,00 h 0,8 UV-I 199 W/m 5,5 km/h (1 Bft)
12.08.2013 16:00 20,1 C 19,7 C 64 % 1014,4 hPa 0,0 l/m 0,00 h 0,00 h 0,5 UV-I 184 W/m 5,8 km/h (2 Bft)
12.08.2013 17:00 20,4 C 20,1 C 63 % 1014,0 hPa 0,0 l/m 0,23 h 0,00 h 0,9 UV-I 224 W/m 5,5 km/h (1 Bft)
12.08.2013 18:00 19,8 C 19,0 C 68 % 1013,9 hPa 0,0 l/m 0,23 h 0,00 h 0,5 UV-I 154 W/m 7,5 km/h (2 Bft)
12.08.2013 19:00 19,2 C 18,0 C 71 % 1013,9 hPa 0,0 l/m 0,00 h 0,00 h 0,0 UV-I 53 W/m 2,0 km/h (1 Bft)
12.08.2013 20:00 18,3 C 16,9 C 73 % 1014,0 hPa 0,0 l/m 0,00 h 0,00 h 0,0 UV-I 18 W/m 0,3 km/h (0 Bft)
12.08.2013 21:00 17,6 C 15,9 C 76 % 1014,3 hPa 0,0 l/m 0,00 h 0,00 h 0,0 UV-I 0 W/m 0,0 km/h (0 Bft)
12.08.2013 22:00 17,2 C 15,5 C 74 % 1014,7 hPa 0,0 l/m 0,00 h 0,00 h 0,0 UV-I 0 W/m 0,2 km/h (0 Bft)
12.08.2013 23:00 16,8 C 14,8 C 74 % 1015,0 hPa 0,0 l/m 0,00 h 0,00 h 0,0 UV-I 0 W/m 0,1 km/h (0 Bft)
13.08.2013 00:00 15,9 C 13,1 C 77 % 1015,5 hPa 0,0 l/m 0,00 h 0,00 h 0,0 UV-I 0 W/m 0,0 km/h (0 Bft)
13.08.2013 01:00 14,9 C 13,2 C 81 % 1015,7 hPa 0,0 l/m 0,00 h 0,00 h 0,0 UV-I 0 W/m 0,0 km/h (0 Bft)
13.08.2013 02:00 14,6 C 13,3 C 83 % 1015,6 hPa 0,0 l/m 0,00 h 0,00 h 0,0 UV-I 0 W/m 0,0 km/h (0 Bft)
13.08.2013 03:00 14,3 C 13,3 C 84 % 1015,7 hPa 0,0 l/m 0,00 h 0,00 h 0,0 UV-I 0 W/m 0,8 km/h (0 Bft)
13.08.2013 04:00 14,2 C 12,9 C 84 % 1015,7 hPa 0,0 l/m 0,00 h 0,12 h 0,0 UV-I 0 W/m 1,3 km/h (1 Bft)
13.08.2013 05:00 14,0 C 12,5 C 84 % 1016,0 hPa 0,0 l/m 0,00 h 0,00 h 0,0 UV-I 0 W/m 0,8 km/h (0 Bft)
13.08.2013 06:00 13,3 C 12,1 C 88 % 1016,4 hPa 0,0 l/m 0,00 h 0,00 h 0,0 UV-I 17 W/m 0,4 km/h (0 Bft)
13.08.2013 07:00 13,5 C 12,4 C 89 % 1016,9 hPa 0,0 l/m 0,00 h 0,00 h 0,0 UV-I 31 W/m 2,2 km/h (1 Bft)
13.08.2013 08:00 14,7 C 13,6 C 85 % 1017,3 hPa 0,0 l/m 0,63 h 0,00 h 0,0 UV-I 204 W/m 5,1 km/h (1 Bft)
13.08.2013 09:00 16,8 C 15,7 C 78 % 1017,9 hPa 0,0 l/m 0,60 h 0,00 h 0,7 UV-I 318 W/m 9,6 km/h (2 Bft)
13.08.2013 10:00 17,7 C 17,8 C 74 % 1018,2 hPa 0,0 l/m 0,33 h 0,27 h 1,2 UV-I 311 W/m 10,2 km/h (2 Bft)
13.08.2013 11:00 17,5 C 18,4 C 78 % 1018,5 hPa 0,0 l/m 0,67 h 0,03 h 2,2 UV-I 543 W/m 6,3 km/h (2 Bft)
13.08.2013 12:00 19,5 C 21,3 C 64 % 1018,5 hPa 0,0 l/m 0,43 h 0,03 h 2,2 UV-I 448 W/m 13,0 km/h (3 Bft)
13.08.2013 13:00 19,7 C 20,7 C 64 % 1018,7 hPa 0,0 l/m 0,63 h 0,10 h 2,4 UV-I 664 W/m 14,4 km/h (3 Bft)
13.08.2013 14:00 17,1 C 15,0 C 77 % 1019,0 hPa 0,6 l/m 0,00 h 0,63 h 1,1 UV-I 115 W/m 8,7 km/h (2 Bft)
13.08.2013 15:00 17,8 C 15,4 C 75 % 1019,1 hPa 0,0 l/m 0,50 h 0,00 h 2,1 UV-I 418 W/m 12,0 km/h (2 Bft)
13.08.2013 16:00 18,4 C 16,6 C 75 % 1019,4 hPa 0,0 l/m 0,33 h 0,23 h 1,3 UV-I 344 W/m 13,1 km/h (3 Bft)
13.08.2013 17:00 18,4 C 17,5 C 69 % 1019,4 hPa 0,0 l/m 0,43 h 0,00 h 0,9 UV-I 308 W/m 10,9 km/h (2 Bft)
13.08.2013 18:00 19,4 C 18,4 C 65 % 1019,4 hPa 0,0 l/m 0,23 h 0,00 h 0,0 UV-I 204 W/m 12,6 km/h (3 Bft)
13.08.2013 19:00 18,4 C 16,9 C 67 % 1019,8 hPa 0,0 l/m 0,00 h 0,00 h 0,0 UV-I 51 W/m 8,0 km/h (2 Bft)
13.08.2013 20:00 16,8 C 15,2 C 73 % 1020,4 hPa 0,0 l/m 0,00 h 0,00 h 0,0 UV-I 20 W/m 2,6 km/h (1 Bft)
13.08.2013 21:00 15,0 C 12,9 C 78 % 1021,0 hPa 0,0 l/m 0,00 h 0,00 h 0,0 UV-I 0 W/m 0,1 km/h (0 Bft)
13.08.2013 22:00 13,5 C 11,2 C 84 % 1021,5 hPa 0,0 l/m 0,00 h 0,00 h 0,0 UV-I 0 W/m 0,0 km/h (0 Bft)
13.08.2013 23:00 12,1 C 10,2 C 89 % 1021,8 hPa 0,0 l/m 0,00 h 0,00 h 0,0 UV-I 0 W/m 0,0 km/h (0 Bft)
14.08.2013 00:00 11,2 C 9,3 C 92 % 1022,2 hPa 0,0 l/m 0,00 h 0,00 h 0,0 UV-I 0 W/m 0,0 km/h (0 Bft)
14.08.2013 01:00 10,5 C 8,9 C 93 % 1022,0 hPa 0,0 l/m 0,00 h 0,00 h 0,0 UV-I 0 W/m 0,0 km/h (0 Bft)
14.08.2013 02:00 10,1 C 8,4 C 93 % 1021,9 hPa 0,0 l/m 0,00 h 0,00 h 0,0 UV-I 0 W/m 0,0 km/h (0 Bft)
14.08.2013 03:00 9,6 C 7,9 C 94 % 1021,9 hPa 0,0 l/m 0,00 h 0,00 h 0,0 UV-I 0 W/m 0,0 km/h (0 Bft)
14.08.2013 04:00 9,9 C 8,6 C 94 % 1021,9 hPa 0,0 l/m 0,00 h 0,00 h 0,0 UV-I 0 W/m 0,1 km/h (0 Bft)
14.08.2013 05:00 10,7 C 9,6 C 92 % 1022,0 hPa 0,0 l/m 0,00 h 0,00 h 0,0 UV-I 0 W/m 0,1 km/h (0 Bft)
14.08.2013 06:00 11,2 C 10,3 C 91 % 1022,2 hPa 0,0 l/m 0,00 h 0,00 h 0,0 UV-I 7 W/m 0,0 km/h (0 Bft)
14.08.2013 07:00 11,7 C 10,4 C 91 % 1022,6 hPa 0,2 l/m 0,00 h 0,37 h 0,0 UV-I 34 W/m 0,2 km/h (0 Bft)
14.08.2013 08:00 12,1 C 10,9 C 93 % 1022,8 hPa 0,2 l/m 0,00 h 0,73 h 0,0 UV-I 67 W/m 0,1 km/h (0 Bft)
14.08.2013 09:00 13,1 C 11,9 C 92 % 1023,0 hPa 0,0 l/m 0,13 h 0,00 h 0,6 UV-I 163 W/m 0,1 km/h (0 Bft)
14.08.2013 10:00 16,7 C 15,7 C 84 % 1023,1 hPa 0,0 l/m 0,50 h 0,00 h 1,1 UV-I 365 W/m 4,3 km/h (1 Bft)
14.08.2013 11:00 18,6 C 19,9 C 75 % 1023,2 hPa 0,0 l/m 0,77 h 0,00 h 2,2 UV-I 567 W/m 7,7 km/h (2 Bft)
14.08.2013 12:00 20,6 C 23,3 C 64 % 1023,0 hPa 0,0 l/m 0,77 h 0,00 h 2,9 UV-I 721 W/m 7,3 km/h (2 Bft)
14.08.2013 13:00 21,2 C 21,9 C 59 % 1022,8 hPa 0,0 l/m 0,43 h 0,00 h 1,8 UV-I 429 W/m 7,2 km/h (2 Bft)
14.08.2013 14:00 21,8 C 24,4 C 56 % 1022,7 hPa 0,0 l/m 0,70 h 0,00 h 3,2 UV-I 650 W/m 7,5 km/h (2 Bft)
14.08.2013 15:00 21,3 C 21,3 C 59 % 1022,7 hPa 0,0 l/m 0,17 h 0,00 h 1,4 UV-I 287 W/m 7,9 km/h (2 Bft)
14.08.2013 16:00 18,8 C 18,0 C 70 % 1022,8 hPa 0,0 l/m 0,00 h 0,00 h 0,0 UV-I 96 W/m 3,3 km/h (1 Bft)
14.08.2013 17:00 19,9 C 19,4 C 64 % 1022,4 hPa 0,0 l/m 0,30 h 0,00 h 0,8 UV-I 270 W/m 3,8 km/h (1 Bft)
14.08.2013 18:00 21,1 C 19,9 C 60 % 1022,3 hPa 0,0 l/m 0,27 h 0,00 h 0,6 UV-I 178 W/m 8,3 km/h (2 Bft)
14.08.2013 19:00 20,2 C 18,9 C 64 % 1022,2 hPa 0,0 l/m 0,00 h 0,00 h 0,0 UV-I 73 W/m 2,3 km/h (1 Bft)
14.08.2013 20:00 19,1 C 17,1 C 65 % 1022,6 hPa 0,0 l/m 0,00 h 0,00 h 0,0 UV-I 16 W/m 0,6 km/h (0 Bft)
14.08.2013 21:00 16,7 C 14,2 C 76 % 1022,8 hPa 0,0 l/m 0,00 h 0,00 h 0,0 UV-I 0 W/m 0,1 km/h (0 Bft)
14.08.2013 22:00 14,7 C 12,8 C 85 % 1022,6 hPa 0,0 l/m 0,00 h 0,00 h 0,0 UV-I 0 W/m 0,0 km/h (0 Bft)
14.08.2013 23:00 13,8 C 12,0 C 90 % 1022,8 hPa 0,0 l/m 0,00 h 0,00 h 0,0 UV-I 0 W/m 0,0 km/h (0 Bft)
15.08.2013 00:00 13,0 C 11,4 C 92 % 1022,7 hPa 0,0 l/m 0,00 h 0,00 h 0,0 UV-I 0 W/m 0,0 km/h (0 Bft)
15.08.2013 01:00 12,8 C 10,9 C 93 % 1022,4 hPa 0,0 l/m 0,00 h 0,00 h 0,0 UV-I 0 W/m 0,0 km/h (0 Bft)
15.08.2013 02:00 12,2 C 10,6 C 93 % 1022,2 hPa 0,0 l/m 0,00 h 0,00 h 0,0 UV-I 0 W/m 0,0 km/h (0 Bft)
15.08.2013 03:00 12,2 C 10,4 C 93 % 1022,0 hPa 0,0 l/m 0,00 h 0,00 h 0,0 UV-I 0 W/m 0,0 km/h (0 Bft)
15.08.2013 04:00 11,8 C 10,0 C 93 % 1021,9 hPa 0,0 l/m 0,00 h 0,00 h 0,0 UV-I 0 W/m 0,0 km/h (0 Bft)
15.08.2013 05:00 11,2 C 9,8 C 93 % 1021,7 hPa 0,0 l/m 0,00 h 0,00 h 0,0 UV-I 0 W/m 0,0 km/h (0 Bft)
15.08.2013 06:00 10,9 C 10,1 C 94 % 1021,7 hPa 0,0 l/m 0,03 h 0,00 h 0,0 UV-I 13 W/m 0,0 km/h (0 Bft)
15.08.2013 07:00 11,9 C 11,2 C 92 % 1022,0 hPa 0,0 l/m 0,00 h 0,00 h 0,0 UV-I 51 W/m 0,0 km/h (0 Bft)
15.08.2013 08:00 13,6 C 13,1 C 88 % 1022,1 hPa 0,0 l/m 0,23 h 0,00 h 0,0 UV-I 156 W/m 0,0 km/h (0 Bft)
15.08.2013 09:00 16,8 C 16,4 C 79 % 1022,0 hPa 0,0 l/m 0,70 h 0,00 h 0,7 UV-I 336 W/m 0,0 km/h (0 Bft)
15.08.2013 10:00 19,6 C 19,9 C 71 % 1022,0 hPa 0,0 l/m 0,53 h 0,00 h 1,3 UV-I 363 W/m 0,0 km/h (0 Bft)
15.08.2013 11:00 20,4 C 20,5 C 68 % 1021,8 hPa 0,0 l/m 0,00 h 0,00 h 1,3 UV-I 293 W/m 9,0 km/h (2 Bft)
15.08.2013 12:00 20,0 C 19,9 C 73 % 1021,7 hPa 0,0 l/m 0,00 h 0,00 h 1,4 UV-I 270 W/m 11,0 km/h (2 Bft)
15.08.2013 13:00 20,1 C 20,2 C 74 % 1021,5 hPa 0,0 l/m 0,00 h 0,00 h 1,5 UV-I 275 W/m 11,0 km/h (2 Bft)
15.08.2013 14:00 20,4 C 20,5 C 73 % 1021,1 hPa 0,0 l/m 0,00 h 0,10 h 1,3 UV-I 244 W/m 8,5 km/h (2 Bft)
15.08.2013 15:00 19,2 C 17,9 C 83 % 1021,0 hPa 0,0 l/m 0,00 h 0,37 h 0,7 UV-I 181 W/m 2,7 km/h (1 Bft)
15.08.2013 16:00 20,5 C 20,7 C 81 % 1020,5 hPa 0,0 l/m 0,00 h 0,03 h 1,1 UV-I 270 W/m 4,3 km/h (1 Bft)
15.08.2013 17:00 21,2 C 20,6 C 79 % 1020,4 hPa 0,0 l/m 0,00 h 0,00 h 0,5 UV-I 200 W/m 6,2 km/h (2 Bft)
15.08.2013 18:00 21,2 C 19,4 C 80 % 1020,2 hPa 0,0 l/m 0,00 h 0,00 h 0,0 UV-I 94 W/m 5,2 km/h (1 Bft)
15.08.2013 19:00 21,4 C 19,1 C 79 % 1019,5 hPa 0,0 l/m 0,10 h 0,00 h 0,0 UV-I 63 W/m 2,2 km/h (1 Bft)
15.08.2013 20:00 20,5 C 16,9 C 80 % 1019,5 hPa 0,0 l/m 0,00 h 0,00 h 0,0 UV-I 13 W/m 0,4 km/h (0 Bft)
15.08.2013 21:00 18,1 C 14,6 C 88 % 1019,6 hPa 0,0 l/m 0,00 h 0,00 h 0,0 UV-I 0 W/m 0,0 km/h (0 Bft)
15.08.2013 22:00 16,6 C 13,4 C 94 % 1019,7 hPa 0,0 l/m 0,00 h 0,00 h 0,0 UV-I 0 W/m 0,0 km/h (0 Bft)
15.08.2013 23:00 15,9 C 12,9 C 95 % 1019,7 hPa 0,0 l/m 0,00 h 0,00 h 0,0 UV-I 0 W/m 0,0 km/h (0 Bft)
16.08.2013 00:00 15,9 C 12,7 C 93 % 1019,5 hPa 0,0 l/m 0,00 h 0,00 h 0,0 UV-I 0 W/m 0,0 km/h (0 Bft)
16.08.2013 01:00 15,5 C 12,3 C 94 % 1019,3 hPa 0,0 l/m 0,00 h 0,00 h 0,0 UV-I 0 W/m 0,0 km/h (0 Bft)
16.08.2013 02:00 15,1 C 11,9 C 95 % 1019,0 hPa 0,0 l/m 0,00 h 0,00 h 0,0 UV-I 0 W/m 0,0 km/h (0 Bft)
16.08.2013 03:00 14,7 C 11,5 C 97 % 1018,8 hPa 0,0 l/m 0,00 h 0,00 h 0,0 UV-I 0 W/m 0,0 km/h (0 Bft)
16.08.2013 04:00 14,4 C 11,6 C 97 % 1018,5 hPa 0,0 l/m 0,00 h 0,00 h 0,0 UV-I 0 W/m 0,0 km/h (0 Bft)
16.08.2013 05:00 14,1 C 11,5 C 97 % 1018,3 hPa 0,0 l/m 0,00 h 0,00 h 0,0 UV-I 0 W/m 0,0 km/h (0 Bft)
16.08.2013 06:00 14,2 C 12,3 C 98 % 1018,2 hPa 0,0 l/m 0,00 h 0,00 h 0,0 UV-I 16 W/m 0,0 km/h (0 Bft)
16.08.2013 07:00 14,5 C 12,5 C 97 % 1018,4 hPa 0,0 l/m 0,00 h 0,00 h 0,0 UV-I 39 W/m 0,0 km/h (0 Bft)
16.08.2013 08:00 16,2 C 14,1 C 94 % 1018,3 hPa 0,0 l/m 0,43 h 0,00 h 0,0 UV-I 171 W/m 0,0 km/h (0 Bft)
16.08.2013 09:00 19,6 C 17,1 C 83 % 1018,0 hPa 0,0 l/m 0,83 h 0,00 h 0,9 UV-I 363 W/m 0,0 km/h (0 Bft)
16.08.2013 10:00 23,2 C 23,4 C 72 % 1017,6 hPa 0,0 l/m 0,97 h 0,00 h 1,9 UV-I 526 W/m 0,0 km/h (0 Bft)
16.08.2013 11:00 25,9 C 25,7 C 60 % 1017,2 hPa 0,0 l/m 0,97 h 0,00 h 3,0 UV-I 635 W/m 0,0 km/h (0 Bft)
16.08.2013 12:00 27,7 C 28,9 C 52 % 1016,6 hPa 0,0 l/m 0,90 h 0,00 h 3,7 UV-I 697 W/m 8,6 km/h (2 Bft)
16.08.2013 13:00 28,2 C 27,2 C 50 % 1016,0 hPa 0,0 l/m 0,77 h 0,00 h 2,6 UV-I 659 W/m 9,7 km/h (2 Bft)
16.08.2013 14:00 29,3 C 29,8 C 47 % 1015,4 hPa 0,0 l/m 0,87 h 0,00 h 3,7 UV-I 707 W/m 9,9 km/h (2 Bft)
16.08.2013 15:00 29,7 C 28,1 C 46 % 1015,0 hPa 0,0 l/m 0,87 h 0,00 h 3,3 UV-I 683 W/m 9,5 km/h (2 Bft)
16.08.2013 16:00 30,0 C 27,9 C 44 % 1014,6 hPa 0,0 l/m 0,97 h 0,00 h 2,5 UV-I 576 W/m 7,9 km/h (2 Bft)
16.08.2013 17:00 29,5 C 26,6 C 45 % 1014,3 hPa 0,0 l/m 0,97 h 0,00 h 1,5 UV-I 444 W/m 7,5 km/h (2 Bft)
16.08.2013 18:00 28,6 C 25,0 C 47 % 1014,0 hPa 0,0 l/m 0,20 h 0,00 h 0,7 UV-I 122 W/m 6,7 km/h (2 Bft)
16.08.2013 19:00 27,3 C 23,4 C 51 % 1014,0 hPa 0,0 l/m 0,00 h 0,00 h 0,0 UV-I 34 W/m 2,7 km/h (1 Bft)
16.08.2013 20:00 24,5 C 20,3 C 61 % 1014,1 hPa 0,0 l/m 0,00 h 0,00 h 0,0 UV-I 11 W/m 1,7 km/h (1 Bft)
16.08.2013 21:00 22,0 C 19,0 C 75 % 1014,8 hPa 0,0 l/m 0,00 h 0,00 h 0,0 UV-I 0 W/m 3,7 km/h (1 Bft)
16.08.2013 22:00 20,5 C 17,9 C 78 % 1015,4 hPa 0,0 l/m 0,00 h 0,00 h 0,0 UV-I 0 W/m 0,7 km/h (0 Bft)
16.08.2013 23:00 19,7 C 17,0 C 81 % 1015,7 hPa 0,0 l/m 0,00 h 0,00 h 0,0 UV-I 0 W/m 0,0 km/h (0 Bft)
17.08.2013 00:00 18,9 C 16,1 C 83 % 1016,1 hPa 0,0 l/m 0,00 h 0,00 h 0,0 UV-I 0 W/m 0,0 km/h (0 Bft)
17.08.2013 01:00 18,4 C 15,7 C 83 % 1016,1 hPa 0,0 l/m 0,00 h 0,00 h 0,0 UV-I 0 W/m 0,0 km/h (0 Bft)
17.08.2013 02:00 17,9 C 15,6 C 86 % 1016,1 hPa 0,0 l/m 0,00 h 0,00 h 0,0 UV-I 0 W/m 0,0 km/h (0 Bft)
17.08.2013 03:00 17,6 C 15,0 C 87 % 1016,0 hPa 0,0 l/m 0,00 h 0,17 h 0,0 UV-I 0 W/m 0,0 km/h (0 Bft)
17.08.2013 04:00 16,9 C 13,6 C 94 % 1016,1 hPa 0,2 l/m 0,00 h 0,60 h 0,0 UV-I 0 W/m 0,0 km/h (0 Bft)
17.08.2013 05:00 16,4 C 13,5 C 98 % 1015,8 hPa 0,4 l/m 0,00 h 0,87 h 0,0 UV-I 0 W/m 0,0 km/h (0 Bft)
17.08.2013 06:00 16,1 C 13,4 C 99 % 1015,6 hPa 0,0 l/m 0,00 h 0,30 h 0,0 UV-I 5 W/m 0,0 km/h (0 Bft)
17.08.2013 07:00 16,2 C 13,8 C 100 % 1015,9 hPa 0,0 l/m 0,00 h 0,00 h 0,0 UV-I 37 W/m 0,0 km/h (0 Bft)
17.08.2013 08:00 16,8 C 13,9 C 98 % 1016,0 hPa 0,0 l/m 0,60 h 0,00 h 0,0 UV-I 170 W/m 0,3 km/h (0 Bft)
17.08.2013 09:00 19,6 C 16,0 C 87 % 1015,9 hPa 0,0 l/m 0,93 h 0,00 h 0,8 UV-I 387 W/m 3,2 km/h (1 Bft)
17.08.2013 10:00 20,4 C 18,8 C 85 % 1015,8 hPa 0,0 l/m 0,00 h 0,00 h 0,7 UV-I 216 W/m 7,0 km/h (2 Bft)
17.08.2013 11:00 20,9 C 19,8 C 84 % 1015,7 hPa 0,0 l/m 0,07 h 0,00 h 1,1 UV-I 228 W/m 5,2 km/h (1 Bft)
17.08.2013 12:00 21,6 C 20,6 C 81 % 1015,4 hPa 0,0 l/m 0,13 h 0,00 h 1,6 UV-I 301 W/m 5,9 km/h (2 Bft)
17.08.2013 13:00 23,8 C 23,1 C 71 % 1015,1 hPa 0,0 l/m 0,43 h 0,00 h 2,3 UV-I 553 W/m 9,0 km/h (2 Bft)
17.08.2013 14:00 24,5 C 24,1 C 65 % 1014,5 hPa 0,0 l/m 0,33 h 0,00 h 2,9 UV-I 471 W/m 14,4 km/h (3 Bft)
17.08.2013 15:00 25,8 C 24,9 C 59 % 1014,3 hPa 0,0 l/m 0,90 h 0,00 h 3,1 UV-I 640 W/m 14,3 km/h (3 Bft)
17.08.2013 16:00 25,8 C 24,3 C 58 % 1013,9 hPa 0,0 l/m 0,83 h 0,00 h 1,9 UV-I 489 W/m 11,9 km/h (2 Bft)
17.08.2013 17:00 25,7 C 23,4 C 58 % 1013,3 hPa 0,0 l/m 0,87 h 0,00 h 1,1 UV-I 362 W/m 9,5 km/h (2 Bft)
17.08.2013 18:00 25,0 C 22,6 C 60 % 1012,8 hPa 0,0 l/m 0,23 h 0,00 h 0,6 UV-I 172 W/m 9,1 km/h (2 Bft)
17.08.2013 19:00 24,3 C 21,3 C 62 % 1012,5 hPa 0,0 l/m 0,00 h 0,00 h 0,0 UV-I 33 W/m 7,5 km/h (2 Bft)
17.08.2013 20:00 23,2 C 20,3 C 66 % 1012,7 hPa 0,0 l/m 0,00 h 0,00 h 0,0 UV-I 21 W/m 4,3 km/h (1 Bft)
17.08.2013 21:00 22,6 C 19,6 C 69 % 1012,8 hPa 0,0 l/m 0,00 h 0,00 h 0,0 UV-I 0 W/m 3,8 km/h (1 Bft)
17.08.2013 22:00 22,4 C 19,6 C 70 % 1012,6 hPa 0,0 l/m 0,00 h 0,00 h 0,0 UV-I 0 W/m 2,1 km/h (1 Bft)
17.08.2013 23:00 21,9 C 19,1 C 73 % 1012,2 hPa 0,0 l/m 0,00 h 0,00 h 0,0 UV-I 0 W/m 2,7 km/h (1 Bft)
18.08.2013 00:00 21,5 C 18,8 C 75 % 1011,9 hPa 0,0 l/m 0,00 h 0,10 h 0,0 UV-I 0 W/m 4,0 km/h (1 Bft)
18.08.2013 01:00 21,8 C 19,1 C 74 % 1011,5 hPa 0,0 l/m 0,00 h 0,00 h 0,0 UV-I 0 W/m 7,0 km/h (2 Bft)
18.08.2013 02:00 21,8 C 19,0 C 74 % 1011,1 hPa 0,0 l/m 0,00 h 0,00 h 0,0 UV-I 0 W/m 5,6 km/h (1 Bft)
18.08.2013 03:00 21,4 C 18,5 C 75 % 1011,2 hPa 0,0 l/m 0,00 h 0,00 h 0,0 UV-I 0 W/m 1,6 km/h (1 Bft)
18.08.2013 04:00 20,9 C 18,0 C 76 % 1011,0 hPa 0,0 l/m 0,00 h 0,00 h 0,0 UV-I 0 W/m 0,0 km/h (0 Bft)
18.08.2013 05:00 20,5 C 17,8 C 78 % 1010,6 hPa 0,0 l/m 0,00 h 0,00 h 0,0 UV-I 0 W/m 0,0 km/h (0 Bft)
18.08.2013 06:00 20,3 C 17,9 C 79 % 1010,3 hPa 0,0 l/m 0,00 h 0,00 h 0,0 UV-I 7 W/m 0,1 km/h (0 Bft)
18.08.2013 07:00 20,6 C 18,8 C 74 % 1010,5 hPa 0,0 l/m 0,00 h 0,07 h 0,0 UV-I 20 W/m 0,5 km/h (0 Bft)
18.08.2013 08:00 21,0 C 19,6 C 73 % 1010,6 hPa 0,0 l/m 0,00 h 0,20 h 0,0 UV-I 47 W/m 5,1 km/h (1 Bft)
18.08.2013 09:00 21,0 C 20,0 C 76 % 1010,7 hPa 0,0 l/m 0,00 h 0,07 h 0,0 UV-I 106 W/m 9,5 km/h (2 Bft)
18.08.2013 10:00 20,8 C 18,6 C 79 % 1011,1 hPa 0,2 l/m 0,00 h 0,67 h 0,0 UV-I 91 W/m 7,6 km/h (2 Bft)
18.08.2013 11:00 19,5 C 17,3 C 89 % 1011,5 hPa 0,2 l/m 0,00 h 0,80 h 0,6 UV-I 95 W/m 2,8 km/h (1 Bft)
18.08.2013 12:00 19,7 C 17,7 C 85 % 1011,6 hPa 0,0 l/m 0,00 h 0,10 h 0,9 UV-I 152 W/m 6,1 km/h (2 Bft)
18.08.2013 13:00 18,5 C 16,9 C 93 % 1012,0 hPa 1,2 l/m 0,00 h 0,93 h 1,3 UV-I 103 W/m 8,1 km/h (2 Bft)
18.08.2013 14:00 19,1 C 18,0 C 95 % 1012,0 hPa 0,0 l/m 0,00 h 0,07 h 1,0 UV-I 190 W/m 7,6 km/h (2 Bft)
18.08.2013 15:00 19,7 C 18,1 C 93 % 1011,8 hPa 1,0 l/m 0,07 h 0,37 h 1,2 UV-I 154 W/m 6,7 km/h (2 Bft)
18.08.2013 16:00 19,3 C 18,1 C 95 % 1012,0 hPa 0,0 l/m 0,00 h 0,20 h 0,7 UV-I 182 W/m 8,3 km/h (2 Bft)
18.08.2013 17:00 20,5 C 18,8 C 92 % 1011,9 hPa 0,0 l/m 0,67 h 0,07 h 0,8 UV-I 330 W/m 7,9 km/h (2 Bft)
18.08.2013 18:00 21,3 C 19,3 C 85 % 1011,9 hPa 0,0 l/m 0,27 h 0,00 h 0,5 UV-I 132 W/m 9,7 km/h (2 Bft)
18.08.2013 19:00 21,0 C 18,9 C 84 % 1012,0 hPa 0,0 l/m 0,00 h 0,00 h 0,0 UV-I 35 W/m 8,1 km/h (2 Bft)
18.08.2013 20:00 20,3 C 18,3 C 87 % 1012,1 hPa 0,0 l/m 0,00 h 0,07 h 0,0 UV-I 15 W/m 3,4 km/h (1 Bft)
18.08.2013 21:00 19,7 C 17,4 C 91 % 1012,5 hPa 0,4 l/m 0,00 h 0,73 h 0,0 UV-I 0 W/m 5,3 km/h (1 Bft)
18.08.2013 22:00 18,6 C 16,6 C 93 % 1012,5 hPa 0,0 l/m 0,00 h 0,20 h 0,0 UV-I 0 W/m 2,3 km/h (1 Bft)
18.08.2013 23:00 17,8 C 15,8 C 94 % 1012,4 hPa 0,0 l/m 0,00 h 0,00 h 0,0 UV-I 0 W/m 0,0 km/h (0 Bft)
Min-Datum _ 14.08.13 14.08.13 16.08.13 18.08.13 - - - - - 12.08.13
_ Min-Zeit 03:36 03:10 16:16 06:22 - - - - - 00:00
Minimum _ 9,4 C 7,8 C 43 % 1010,2 hPa - - - - - 0,0 km/h (0 Bft)
Max-Datum _ 16.08.13 16.08.13 17.08.13 14.08.13 18.08.13 12.08.13 12.08.13 13.08.13 17.08.13 13.08.13
_ Max-Zeit 15:30 14:34 06:46 10:44 13:06 08:26 02:38 13:56 13:00 15:30
Maximum _ 30,2 C 33,4 C 100 % 1023,2 hPa 1,2 l/m 0,03 h 0,03 h 4,3 UV-I 1004 W/m 33,5 km/h
N-NW (5 Bft)
Durchschnitt _ 18,4 C 16,9 C 79 % 1017,2 hPa #4,6 l/m #28:16 h #9:39 h 1,5 UV-I 241 W/m 3,7 km/h (1 Bft)
© 2013 W. Hausmann